createdAt,value
2018-09-24T00:00:19.779Z,7.60
2018-09-24T00:02:49.546Z,7.30
2018-09-24T00:05:19.399Z,9.13
2018-09-24T00:07:49.248Z,7.23
2018-09-24T00:10:19.041Z,8.20
2018-09-24T00:12:48.787Z,9.03
2018-09-24T00:15:18.599Z,6.60
2018-09-24T00:17:48.402Z,7.63
2018-09-24T00:20:18.152Z,11.43
2018-09-24T00:22:48.023Z,7.87
2018-09-24T00:25:17.823Z,6.60
2018-09-24T00:27:47.746Z,8.50
2018-09-24T00:30:17.810Z,9.00
2018-09-24T00:32:47.906Z,9.03
2018-09-24T00:35:17.795Z,9.87
2018-09-24T00:37:47.641Z,6.60
2018-09-24T00:40:17.438Z,7.03
2018-09-24T00:42:47.260Z,7.40
2018-09-24T00:45:17.172Z,8.60
2018-09-24T00:47:46.975Z,8.27
2018-09-24T00:50:16.885Z,8.77
2018-09-24T00:52:46.623Z,8.30
2018-09-24T00:55:16.514Z,8.60
2018-09-24T00:57:46.469Z,7.70
2018-09-24T01:00:16.357Z,7.60
2018-09-24T01:02:46.248Z,6.00
2018-09-24T01:05:16.023Z,8.50
2018-09-24T01:07:45.893Z,9.57
2018-09-24T01:10:16.379Z,10.50
2018-09-24T01:12:46.287Z,9.70
2018-09-24T01:15:16.157Z,10.63
2018-09-24T01:17:46.023Z,8.57
2018-09-24T01:20:15.819Z,9.03
2018-09-24T01:23:48.938Z,8.17
2018-09-24T01:26:18.732Z,9.57
2018-09-24T01:28:48.625Z,6.40
2018-09-24T01:31:18.474Z,7.17
2018-09-24T01:33:48.436Z,6.70
2018-09-24T01:36:18.248Z,8.77
2018-09-24T01:38:48.132Z,6.53
2018-09-24T01:41:18.470Z,8.57
2018-09-24T01:43:48.372Z,8.00
2018-09-24T01:46:18.234Z,7.77
2018-09-24T01:48:48.002Z,8.23
2018-09-24T01:51:17.845Z,9.80
2018-09-24T01:53:47.609Z,9.27
2018-09-24T01:56:17.344Z,8.83
2018-09-24T01:58:47.170Z,6.80
2018-09-24T02:01:17.056Z,9.23
2018-09-24T02:03:46.849Z,8.80
2018-09-24T02:06:16.641Z,6.33
2018-09-24T02:08:46.439Z,7.57
2018-09-24T02:11:16.331Z,6.70
2018-09-24T02:13:49.773Z,8.63
2018-09-24T02:16:20.134Z,9.93
2018-09-24T02:18:50.261Z,7.17
2018-09-24T02:21:19.981Z,6.93
2018-09-24T02:23:49.767Z,6.07
2018-09-24T02:26:19.657Z,8.43
2018-09-24T02:28:49.477Z,7.27
2018-09-24T02:31:19.389Z,8.40
2018-09-24T02:33:49.310Z,7.80
2018-09-24T02:36:19.033Z,7.40
2018-09-24T02:38:48.839Z,8.13
2018-09-24T02:41:18.698Z,7.03
2018-09-24T02:43:48.469Z,7.67
2018-09-24T02:46:18.193Z,8.13
2018-09-24T02:48:48.097Z,11.40
2018-09-24T02:51:17.969Z,8.67
2018-09-24T02:53:47.833Z,7.53
2018-09-24T02:56:17.680Z,9.53
2018-09-24T02:58:47.601Z,9.00
2018-09-24T03:01:17.490Z,8.77
2018-09-24T03:03:47.255Z,7.30
2018-09-24T03:06:17.116Z,5.03
2018-09-24T03:08:46.872Z,7.07
2018-09-24T03:11:16.651Z,10.07
2018-09-24T03:13:46.474Z,7.63
2018-09-24T03:16:16.323Z,6.40
2018-09-24T03:18:55.511Z,7.50
2018-09-24T03:21:25.326Z,7.30
2018-09-24T03:23:55.089Z,7.43
2018-09-24T03:26:24.986Z,6.93
2018-09-24T03:28:54.758Z,5.97
2018-09-24T03:31:24.478Z,9.90
2018-09-24T03:33:54.362Z,9.23
2018-09-24T03:36:24.186Z,11.43
2018-09-24T03:38:53.980Z,6.47
2018-09-24T03:41:23.815Z,9.00
2018-09-24T03:43:53.606Z,6.93
2018-09-24T03:46:23.358Z,9.37
2018-09-24T03:48:53.186Z,6.67
2018-09-24T03:51:22.899Z,6.93
2018-09-24T03:53:52.726Z,6.57
2018-09-24T03:56:22.543Z,6.53
2018-09-24T03:58:52.443Z,6.70
2018-09-24T04:01:22.221Z,6.90
2018-09-24T04:03:52.055Z,8.90
2018-09-24T04:06:27.106Z,7.87
2018-09-24T04:09:02.118Z,6.73
2018-09-24T04:11:37.187Z,6.43
2018-09-24T04:14:12.182Z,8.23
2018-09-24T04:16:47.223Z,7.77
2018-09-24T04:19:22.172Z,8.23
2018-09-24T04:21:56.862Z,5.53
2018-09-24T04:24:31.784Z,6.10
2018-09-24T04:27:06.649Z,6.60
2018-09-24T04:29:41.520Z,6.80
2018-09-24T04:32:16.349Z,9.07
2018-09-24T04:34:51.333Z,8.77
2018-09-24T04:37:26.430Z,5.30
2018-09-24T04:40:01.363Z,6.47
2018-09-24T04:42:36.229Z,8.80
2018-09-24T04:45:11.302Z,7.27
2018-09-24T04:47:46.430Z,6.80
2018-09-24T04:50:21.353Z,6.37
2018-09-24T04:52:56.279Z,6.13
2018-09-24T04:55:31.103Z,6.33
2018-09-24T04:58:06.016Z,7.27
2018-09-24T05:00:41.100Z,7.30
2018-09-24T05:03:16.186Z,6.60
2018-09-24T05:05:51.935Z,5.27
2018-09-24T05:08:26.866Z,7.83
2018-09-24T05:11:01.718Z,8.83
2018-09-24T05:13:36.902Z,6.47
2018-09-24T05:16:12.065Z,6.23
2018-09-24T05:18:46.969Z,6.60
2018-09-24T05:21:22.000Z,5.90
2018-09-24T05:23:57.083Z,7.83
2018-09-24T05:26:32.139Z,6.27
2018-09-24T05:29:07.178Z,6.53
2018-09-24T05:31:42.197Z,11.03
2018-09-24T05:34:17.067Z,6.20
2018-09-24T05:36:51.873Z,12.47
2018-09-24T05:39:26.783Z,7.53
2018-09-24T05:42:01.566Z,5.73
2018-09-24T05:44:36.444Z,6.00
2018-09-24T05:47:11.659Z,6.90
2018-09-24T05:49:46.438Z,6.87
2018-09-24T05:52:21.482Z,8.73
2018-09-24T05:54:56.551Z,8.07
2018-09-24T05:57:31.751Z,7.80
2018-09-24T06:00:06.665Z,7.63
2018-09-24T06:02:41.713Z,7.33
2018-09-24T06:05:16.791Z,8.53
2018-09-24T06:07:51.847Z,7.70
2018-09-24T06:10:26.652Z,6.83
2018-09-24T06:13:01.678Z,5.87
2018-09-24T06:15:36.632Z,7.03
2018-09-24T06:18:11.637Z,6.70
2018-09-24T06:20:46.642Z,6.80
2018-09-24T06:23:21.528Z,8.47
2018-09-24T06:25:56.496Z,8.53
2018-09-24T06:28:31.515Z,10.40
2018-09-24T06:31:06.502Z,8.77
2018-09-24T06:33:41.466Z,7.57
2018-09-24T06:36:16.441Z,6.10
2018-09-24T06:38:51.467Z,8.17
2018-09-24T06:41:26.623Z,6.10
2018-09-24T06:44:01.688Z,9.13
2018-09-24T06:46:36.590Z,6.23
2018-09-24T06:49:11.547Z,5.80
2018-09-24T06:51:46.343Z,7.20
2018-09-24T06:54:21.402Z,8.33
2018-09-24T06:56:56.353Z,7.73
2018-09-24T06:59:33.391Z,5.70
2018-09-24T07:02:08.341Z,6.03
2018-09-24T07:04:43.315Z,7.67
2018-09-24T07:07:18.141Z,7.70
2018-09-24T07:09:53.036Z,7.60
2018-09-24T07:12:28.043Z,5.63
2018-09-24T07:15:03.067Z,6.57
2018-09-24T07:17:38.079Z,8.90
2018-09-24T07:20:13.157Z,5.53
2018-09-24T07:22:48.110Z,9.47
2018-09-24T07:25:23.179Z,5.47
2018-09-24T07:27:58.251Z,5.60
2018-09-24T07:30:33.206Z,5.53
2018-09-24T07:33:08.272Z,6.20
2018-09-24T07:35:43.230Z,5.80
2018-09-24T07:38:18.230Z,5.63
2018-09-24T07:40:53.209Z,3.50
2018-09-24T07:43:28.267Z,5.13
2018-09-24T07:46:03.123Z,6.57
2018-09-24T07:48:38.219Z,5.73
2018-09-24T07:51:13.134Z,5.83
2018-09-24T07:53:48.086Z,4.20
2018-09-24T07:56:23.018Z,8.67
2018-09-24T07:58:57.993Z,4.67
2018-09-24T08:01:32.919Z,8.53
2018-09-24T08:04:07.714Z,4.87
2018-09-24T08:06:42.775Z,7.63
2018-09-24T08:09:17.615Z,3.97
2018-09-24T08:11:52.551Z,7.03
2018-09-24T08:14:27.431Z,5.93
2018-09-24T08:17:02.631Z,5.57
2018-09-24T08:19:37.493Z,7.57
2018-09-24T08:22:12.668Z,4.93
2018-09-24T08:24:47.608Z,7.13
2018-09-24T08:27:22.401Z,4.13
2018-09-24T08:29:57.245Z,6.00
2018-09-24T08:32:32.186Z,6.20
2018-09-24T08:35:07.012Z,6.37
2018-09-24T08:37:41.820Z,5.60
2018-09-24T08:40:16.768Z,6.53
2018-09-24T08:42:51.538Z,6.00
2018-09-24T08:45:26.431Z,5.47
2018-09-24T08:48:01.278Z,5.17
2018-09-24T08:50:36.339Z,6.40
2018-09-24T08:53:11.534Z,5.73
2018-09-24T08:55:46.431Z,3.57
2018-09-24T08:58:21.299Z,4.87
2018-09-24T09:00:56.160Z,5.23
2018-09-24T09:03:31.196Z,4.17
2018-09-24T09:06:06.050Z,5.47
2018-09-24T09:08:40.957Z,6.30
2018-09-24T09:11:16.043Z,4.10
2018-09-24T09:13:50.906Z,5.40
2018-09-24T09:16:26.033Z,3.30
2018-09-24T09:19:01.061Z,4.37
2018-09-24T09:21:35.889Z,5.10
2018-09-24T09:24:10.959Z,4.60
2018-09-24T09:26:46.098Z,3.57
2018-09-24T09:29:21.197Z,4.00
2018-09-24T09:31:56.127Z,4.93
2018-09-24T09:34:31.070Z,3.07
2018-09-24T09:37:06.075Z,3.93
2018-09-24T09:39:40.915Z,6.13
2018-09-24T09:42:15.852Z,4.13
2018-09-24T09:44:50.831Z,4.67
2018-09-24T09:47:25.671Z,4.50
2018-09-24T09:50:00.735Z,3.97
2018-09-24T09:52:35.723Z,2.10
2018-09-24T09:55:10.519Z,3.90
2018-09-24T09:57:45.549Z,5.93
2018-09-24T10:00:20.469Z,7.07
2018-09-24T10:02:55.556Z,3.83
2018-09-24T10:05:30.466Z,3.53
2018-09-24T10:08:05.359Z,5.27
2018-09-24T10:10:40.353Z,3.83
2018-09-24T10:13:15.287Z,4.37
2018-09-24T10:15:50.291Z,3.17
2018-09-24T10:18:25.482Z,2.67
2018-09-24T10:21:00.514Z,5.83
2018-09-24T10:23:35.422Z,2.63
2018-09-24T10:26:10.311Z,3.50
2018-09-24T10:28:45.406Z,4.80
2018-09-24T10:31:20.191Z,3.67
2018-09-24T10:33:55.056Z,3.00
2018-09-24T10:36:30.102Z,4.23
2018-09-24T10:39:05.017Z,4.07
2018-09-24T10:41:39.878Z,5.27
2018-09-24T10:44:15.128Z,3.20
2018-09-24T10:46:49.981Z,6.90
2018-09-24T10:49:25.087Z,2.60
2018-09-24T10:51:59.930Z,2.20
2018-09-24T10:54:34.867Z,2.40
2018-09-24T10:57:09.894Z,2.50
2018-09-24T10:59:44.755Z,2.27
2018-09-24T11:02:19.729Z,3.83
2018-09-24T11:04:54.512Z,4.20
2018-09-24T11:07:29.463Z,5.00
2018-09-24T11:10:04.638Z,2.13
2018-09-24T11:12:39.624Z,3.80
2018-09-24T11:15:14.575Z,1.47
2018-09-24T11:17:49.768Z,2.20
2018-09-24T11:20:24.644Z,2.17
2018-09-24T11:22:59.475Z,3.30
2018-09-24T11:25:34.541Z,3.87
2018-09-24T11:28:09.478Z,3.47
2018-09-24T11:30:44.614Z,4.23
2018-09-24T11:33:19.766Z,3.43
2018-09-24T11:35:54.700Z,2.57
2018-09-24T11:38:29.570Z,4.10
2018-09-24T11:41:04.349Z,3.03
2018-09-24T11:43:39.386Z,2.83
2018-09-24T11:46:14.186Z,2.57
2018-09-24T11:48:49.078Z,2.47
2018-09-24T11:51:24.030Z,1.87
2018-09-24T11:53:58.958Z,2.10
2018-09-24T11:56:33.953Z,1.60
2018-09-24T11:59:08.977Z,3.10
2018-09-24T12:01:44.000Z,1.90
2018-09-24T12:04:19.005Z,1.73
2018-09-24T12:06:53.988Z,2.73
2018-09-24T12:09:28.943Z,1.83
2018-09-24T12:12:03.978Z,0.83
2018-09-24T12:14:38.935Z,2.47
2018-09-24T12:17:14.231Z,1.67
2018-09-24T12:19:49.134Z,1.63
2018-09-24T12:22:24.023Z,2.10
2018-09-24T12:24:58.961Z,1.83
2018-09-24T12:27:34.140Z,1.90
2018-09-24T12:30:09.287Z,2.37
2018-09-24T12:32:44.219Z,2.47
2018-09-24T12:35:19.127Z,2.67
2018-09-24T12:37:53.961Z,3.73
2018-09-24T12:40:29.010Z,3.67
2018-09-24T12:43:03.897Z,2.03
2018-09-24T12:45:38.761Z,2.30
2018-09-24T12:48:13.821Z,3.30
2018-09-24T12:50:48.656Z,2.70
2018-09-24T12:53:23.611Z,3.47
2018-09-24T12:55:58.380Z,2.13
2018-09-24T12:58:33.176Z,1.30
2018-09-24T13:01:08.057Z,2.53
2018-09-24T13:03:42.988Z,2.27
2018-09-24T13:06:17.815Z,1.97
2018-09-24T13:08:52.678Z,3.77
2018-09-24T13:11:27.718Z,2.40
2018-09-24T13:14:02.841Z,4.27
2018-09-24T13:16:37.636Z,3.37
2018-09-24T13:19:12.829Z,3.60
2018-09-24T13:21:47.625Z,3.70
2018-09-24T13:24:22.518Z,2.93
2018-09-24T13:26:57.612Z,5.63
2018-09-24T13:29:32.674Z,5.20
2018-09-24T13:32:07.606Z,3.00
2018-09-24T13:34:42.720Z,4.20
2018-09-24T13:37:17.579Z,4.00
2018-09-24T13:39:52.541Z,5.20
2018-09-24T13:42:27.411Z,3.67
2018-09-24T13:45:02.501Z,3.83
2018-09-24T13:47:37.523Z,4.17
2018-09-24T13:50:12.606Z,4.57
2018-09-24T13:52:47.617Z,4.50
2018-09-24T13:55:22.422Z,4.53
2018-09-24T13:57:57.569Z,3.57
2018-09-24T14:00:32.516Z,5.80
2018-09-24T14:03:07.464Z,4.90
2018-09-24T14:05:42.248Z,5.87
2018-09-24T14:08:17.068Z,4.93
2018-09-24T14:10:52.032Z,4.63
2018-09-24T14:13:27.149Z,4.90
2018-09-24T14:16:02.275Z,4.83
2018-09-24T14:18:37.410Z,4.07
2018-09-24T14:21:12.447Z,7.37
2018-09-24T14:23:47.542Z,5.77
2018-09-24T14:26:22.545Z,6.07
2018-09-24T14:28:57.515Z,4.23
2018-09-24T14:31:32.528Z,4.13
2018-09-24T14:34:07.331Z,4.70
2018-09-24T14:36:42.354Z,4.87
2018-09-24T14:39:17.234Z,7.43
2018-09-24T14:41:52.342Z,5.10
2018-09-24T14:44:27.362Z,4.60
2018-09-24T14:47:02.533Z,7.70
2018-09-24T14:49:37.449Z,3.80
2018-09-24T14:52:12.542Z,5.50
2018-09-24T14:54:47.779Z,4.43
2018-09-24T14:57:22.930Z,6.17
2018-09-24T14:59:58.085Z,4.63
2018-09-24T15:02:33.025Z,5.37
2018-09-24T15:05:08.068Z,8.17
2018-09-24T15:07:42.928Z,4.60
2018-09-24T15:10:18.033Z,7.57
2018-09-24T15:12:53.150Z,8.13
2018-09-24T15:15:28.449Z,6.87
2018-09-24T15:18:03.422Z,4.43
2018-09-24T15:20:38.448Z,4.90
2018-09-24T15:23:13.275Z,5.07
2018-09-24T15:25:48.382Z,5.10
2018-09-24T15:28:23.411Z,3.47
2018-09-24T15:30:58.431Z,4.60
2018-09-24T15:33:33.600Z,4.10
2018-09-24T15:36:08.551Z,5.53
2018-09-24T15:38:43.761Z,5.03
2018-09-24T15:41:20.091Z,4.23
2018-09-24T15:43:55.555Z,5.07
2018-09-24T15:46:30.673Z,5.30
2018-09-24T15:49:05.676Z,5.50
2018-09-24T15:51:40.835Z,4.20
2018-09-24T15:54:15.791Z,2.80
2018-09-24T15:56:50.915Z,3.77
2018-09-24T15:59:25.943Z,5.17
2018-09-24T16:02:00.800Z,3.87
2018-09-24T16:04:35.934Z,4.93
2018-09-24T16:07:11.193Z,4.73
2018-09-24T16:09:46.119Z,5.80
2018-09-24T16:12:21.253Z,6.97
2018-09-24T16:14:56.291Z,5.77
2018-09-24T16:17:31.263Z,4.33
2018-09-24T16:20:06.247Z,6.67
2018-09-24T16:22:41.302Z,5.10
2018-09-24T16:25:16.366Z,7.13
2018-09-24T16:27:51.314Z,5.27
2018-09-24T16:30:26.614Z,5.67
2018-09-24T16:33:01.670Z,4.63
2018-09-24T16:35:36.819Z,6.80
2018-09-24T16:38:11.906Z,3.93
2018-09-24T16:40:46.992Z,4.27
2018-09-24T16:43:22.030Z,7.63
2018-09-24T16:45:56.855Z,4.83
2018-09-24T16:48:31.893Z,4.27
2018-09-24T16:51:07.007Z,8.47
2018-09-24T16:53:42.040Z,4.00
2018-09-24T16:56:17.068Z,6.10
2018-09-24T16:58:52.433Z,3.50
2018-09-24T17:01:31.108Z,4.93
2018-09-24T17:04:06.333Z,7.43
2018-09-24T17:06:41.471Z,4.90
2018-09-24T17:09:16.429Z,3.80
2018-09-24T17:11:51.602Z,3.73
2018-09-24T17:14:26.530Z,4.60
2018-09-24T17:17:01.575Z,4.73
2018-09-24T17:19:36.546Z,4.13
2018-09-24T17:22:11.560Z,7.13
2018-09-24T17:24:46.661Z,6.27
2018-09-24T17:27:21.731Z,7.30
2018-09-24T17:29:56.709Z,6.10
2018-09-24T17:32:31.729Z,4.60
2018-09-24T17:35:06.814Z,5.07
2018-09-24T17:37:41.791Z,4.20
2018-09-24T17:40:16.719Z,5.00
2018-09-24T17:42:55.142Z,2.63
2018-09-24T17:45:30.047Z,6.17
2018-09-24T17:48:05.785Z,4.17
2018-09-24T17:50:40.763Z,4.13
2018-09-24T17:53:16.701Z,3.00
2018-09-24T17:55:53.714Z,3.77
2018-09-24T17:58:28.735Z,3.53
2018-09-24T18:01:04.284Z,5.47
2018-09-24T18:03:39.356Z,4.30
2018-09-24T18:06:14.533Z,5.83
2018-09-24T18:08:49.708Z,5.57
2018-09-24T18:11:24.715Z,3.00
2018-09-24T18:13:59.589Z,3.17
2018-09-24T18:16:34.712Z,3.37
2018-09-24T18:19:09.556Z,3.87
2018-09-24T18:21:44.443Z,2.47
2018-09-24T18:24:19.556Z,4.93
2018-09-24T18:26:54.590Z,4.40
2018-09-24T18:29:29.600Z,3.17
2018-09-24T18:32:04.472Z,4.83
2018-09-24T18:34:39.571Z,3.77
2018-09-24T18:37:14.588Z,3.57
2018-09-24T18:39:49.460Z,3.77
2018-09-24T18:42:24.574Z,3.73
2018-09-24T18:44:59.610Z,3.93
2018-09-24T18:47:34.569Z,5.77
2018-09-24T18:50:09.725Z,4.37
2018-09-24T18:52:44.753Z,3.80
2018-09-24T18:55:19.879Z,4.07
2018-09-24T18:57:54.714Z,3.57
2018-09-24T19:00:29.790Z,3.90
2018-09-24T19:03:04.599Z,3.97
2018-09-24T19:05:39.746Z,3.23
2018-09-24T19:08:15.032Z,4.67
2018-09-24T19:10:49.936Z,3.70
2018-09-24T19:13:25.205Z,5.30
2018-09-24T19:16:00.324Z,6.37
2018-09-24T19:18:35.445Z,4.53
2018-09-24T19:21:10.458Z,3.93
2018-09-24T19:23:45.808Z,5.00
2018-09-24T19:26:21.032Z,4.67
2018-09-24T19:28:55.966Z,3.73
2018-09-24T19:31:30.860Z,4.90
2018-09-24T19:34:05.874Z,4.27
2018-09-24T19:36:40.964Z,3.57
2018-09-24T19:39:16.039Z,4.10
2018-09-24T19:41:51.484Z,2.80
2018-09-24T19:44:26.380Z,3.10
2018-09-24T19:47:01.567Z,5.03
2018-09-24T19:49:36.613Z,4.17
2018-09-24T19:52:11.590Z,5.83
2018-09-24T19:54:46.522Z,5.37
2018-09-24T19:57:21.481Z,4.43
2018-09-24T19:59:56.338Z,5.20
2018-09-24T20:02:31.343Z,5.00
2018-09-24T20:05:06.162Z,5.50
2018-09-24T20:07:41.242Z,4.63
2018-09-24T20:10:16.429Z,5.03
2018-09-24T20:12:51.544Z,5.77
2018-09-24T20:15:26.631Z,9.50
2018-09-24T20:18:01.686Z,6.83
2018-09-24T20:20:36.754Z,4.13
2018-09-24T20:23:11.851Z,7.33
2018-09-24T20:25:47.194Z,6.07
2018-09-24T20:28:24.075Z,5.30
2018-09-24T20:30:59.264Z,3.60
2018-09-24T20:33:34.277Z,4.27
2018-09-24T20:36:09.373Z,3.93
2018-09-24T20:38:44.322Z,3.77
2018-09-24T20:41:19.130Z,5.40
2018-09-24T20:43:54.163Z,6.60
2018-09-24T20:46:29.006Z,7.67
2018-09-24T20:49:04.015Z,5.87
2018-09-24T20:51:39.035Z,4.33
2018-09-24T20:54:14.097Z,4.10
2018-09-24T20:56:48.887Z,6.13
2018-09-24T20:59:24.330Z,4.17
2018-09-24T21:01:59.446Z,4.03
2018-09-24T21:04:34.324Z,4.83
2018-09-24T21:07:09.300Z,7.47
2018-09-24T21:09:44.158Z,6.27
2018-09-24T21:15:12.603Z,6.70
2018-09-24T21:17:47.515Z,4.07
2018-09-24T21:20:22.458Z,5.03
2018-09-24T21:22:57.605Z,3.33
2018-09-24T21:25:32.590Z,6.57
2018-09-24T21:28:07.660Z,5.50
2018-09-24T21:30:42.790Z,4.60
2018-09-24T21:33:17.851Z,3.87
2018-09-24T21:35:52.835Z,4.70
2018-09-24T21:38:27.845Z,4.87
2018-09-24T21:41:02.779Z,8.23
2018-09-24T21:43:37.817Z,5.60
2018-09-24T21:46:12.838Z,5.97
2018-09-24T21:48:47.509Z,7.33
2018-09-24T21:51:22.648Z,7.47
2018-09-24T21:53:57.848Z,5.17
2018-09-24T21:56:32.938Z,5.87
2018-09-24T21:59:07.956Z,4.37
2018-09-24T22:01:42.954Z,4.40
2018-09-24T22:04:17.840Z,4.90
2018-09-24T22:06:52.684Z,6.43
2018-09-24T22:09:27.661Z,3.90
2018-09-24T22:12:02.504Z,5.77
2018-09-24T22:14:37.699Z,4.00
2018-09-24T22:17:12.888Z,3.73
2018-09-24T22:19:47.901Z,6.37
2018-09-24T22:22:22.921Z,5.87
2018-09-24T22:24:57.843Z,5.30
2018-09-24T22:27:32.687Z,3.77
2018-09-24T22:30:07.800Z,6.17
2018-09-24T22:32:42.624Z,5.30
2018-09-24T22:35:17.584Z,4.70
2018-09-24T22:37:52.494Z,3.93
2018-09-24T22:40:27.644Z,4.93
2018-09-24T22:43:02.690Z,6.40
2018-09-24T22:45:37.758Z,7.43
2018-09-24T22:48:12.848Z,6.67
2018-09-24T22:50:47.762Z,4.97
2018-09-24T22:53:22.619Z,5.33
2018-09-24T22:55:57.361Z,4.53
2018-09-24T22:58:32.194Z,6.03
2018-09-24T23:01:07.021Z,8.47
2018-09-24T23:03:41.914Z,4.17
2018-09-24T23:06:16.814Z,4.20
2018-09-24T23:08:51.791Z,4.23
2018-09-24T23:11:26.634Z,4.13
2018-09-24T23:14:01.533Z,3.70
2018-09-24T23:16:36.531Z,6.10
2018-09-24T23:19:11.437Z,5.17
2018-09-24T23:21:46.395Z,4.97
2018-09-24T23:24:21.314Z,4.27
2018-09-24T23:26:56.166Z,3.93
2018-09-24T23:29:31.033Z,3.33
2018-09-24T23:32:06.109Z,6.33
2018-09-24T23:34:41.190Z,6.80
2018-09-24T23:37:16.095Z,5.50
2018-09-24T23:39:51.006Z,7.27
2018-09-24T23:42:26.068Z,5.20
2018-09-24T23:45:00.875Z,8.17
2018-09-24T23:47:35.748Z,7.07
2018-09-24T23:50:10.868Z,4.47
2018-09-24T23:52:45.971Z,4.53
2018-09-24T23:55:20.809Z,6.13
2018-09-24T23:57:56.035Z,3.47
